createdAt,value
2022-10-11T00:00:00.127Z,7.42
2022-10-11T00:02:38.224Z,7.42
2022-10-11T00:05:17.002Z,7.43
2022-10-11T00:07:54.710Z,7.40
2022-10-11T00:10:35.125Z,7.43
2022-10-11T00:13:13.100Z,7.40
2022-10-11T00:15:50.900Z,7.40
2022-10-11T00:18:29.043Z,7.31
2022-10-11T00:21:10.413Z,7.37
2022-10-11T00:23:49.703Z,7.33
2022-10-11T00:26:28.550Z,7.24
2022-10-11T00:29:07.211Z,7.21
2022-10-11T00:31:45.845Z,7.24
2022-10-11T00:34:24.800Z,7.19
2022-10-11T00:37:03.211Z,7.26
2022-10-11T00:39:41.150Z,7.25
2022-10-11T00:42:19.326Z,7.23
2022-10-11T00:45:31.435Z,7.31
2022-10-11T00:48:18.687Z,7.18
2022-10-11T00:50:59.769Z,7.13
2022-10-11T00:53:38.733Z,7.21
2022-10-11T00:56:38.855Z,7.24
2022-10-11T00:59:23.256Z,7.16
2022-10-11T01:02:02.839Z,7.10
2022-10-11T01:04:42.796Z,7.09
2022-10-11T01:07:21.924Z,6.96
2022-10-11T01:09:59.910Z,7.05
2022-10-11T01:12:52.951Z,7.04
2022-10-11T01:15:45.817Z,7.07
2022-10-11T01:19:08.019Z,7.09
2022-10-11T01:22:21.598Z,7.08
2022-10-11T01:25:17.753Z,6.97
2022-10-11T01:28:10.469Z,6.96
2022-10-11T01:30:49.063Z,6.89
2022-10-11T01:33:43.811Z,6.89
2022-10-11T01:36:27.937Z,6.84
2022-10-11T01:39:26.154Z,6.85
2022-10-11T01:42:07.711Z,6.82
2022-10-11T01:44:49.157Z,6.75
2022-10-11T01:47:27.324Z,6.80
2022-10-11T01:50:08.117Z,6.77
2022-10-11T01:52:47.646Z,6.76
2022-10-11T01:55:39.503Z,6.77
2022-10-11T01:58:29.511Z,6.75
2022-10-11T02:01:26.056Z,6.76
2022-10-11T02:04:27.347Z,6.77
2022-10-11T02:07:09.334Z,6.69
2022-10-11T02:09:52.543Z,6.67
2022-10-11T02:12:44.659Z,6.66
2022-10-11T02:15:26.866Z,6.64
2022-10-11T02:18:10.143Z,6.63
2022-10-11T02:20:50.496Z,6.55
2022-10-11T02:23:42.559Z,6.61
2022-10-11T02:26:23.494Z,6.47
2022-10-11T02:29:05.943Z,6.50
2022-10-11T02:31:45.986Z,6.47
2022-10-11T02:34:27.709Z,6.46
2022-10-11T02:37:25.557Z,6.45
2022-10-11T02:40:25.575Z,6.50
2022-10-11T02:43:06.605Z,6.39
2022-10-11T02:45:51.086Z,6.39
2022-10-11T02:48:29.531Z,6.35
2022-10-11T02:51:13.404Z,6.37
2022-10-11T02:53:51.112Z,6.33
2022-10-11T02:56:28.063Z,6.30
2022-10-11T02:59:06.578Z,6.30
2022-10-11T03:01:44.944Z,6.28
2022-10-11T03:04:23.947Z,6.27
2022-10-11T03:07:02.159Z,6.27
2022-10-11T03:09:40.820Z,6.27
2022-10-11T03:12:18.597Z,6.21
2022-10-11T03:14:56.820Z,6.25
2022-10-11T03:17:36.876Z,6.25
2022-10-11T03:20:14.835Z,6.20
2022-10-11T03:22:53.016Z,6.22
2022-10-11T03:25:31.234Z,6.16
2022-10-11T03:28:09.506Z,6.22
2022-10-11T03:30:51.725Z,6.22
2022-10-11T03:33:30.646Z,6.20
2022-10-11T03:36:09.262Z,6.16
2022-10-11T03:38:47.061Z,6.11
2022-10-11T03:41:25.322Z,6.18
2022-10-11T03:44:03.760Z,6.11
2022-10-11T03:46:41.731Z,6.13
2022-10-11T03:49:20.046Z,6.11
2022-10-11T03:51:58.106Z,6.21
2022-10-11T03:54:36.519Z,6.22
2022-10-11T03:57:14.962Z,6.18
2022-10-11T03:59:52.730Z,6.18
2022-10-11T04:02:32.208Z,6.22
2022-10-11T04:05:12.780Z,6.16
2022-10-11T04:07:50.806Z,6.22
2022-10-11T04:10:28.803Z,6.22
2022-10-11T04:13:07.533Z,6.23
2022-10-11T04:15:45.202Z,6.22
2022-10-11T04:18:23.366Z,6.22
2022-10-11T04:21:01.596Z,6.30
2022-10-11T04:23:39.781Z,6.24
2022-10-11T04:26:17.982Z,6.26
2022-10-11T04:28:56.322Z,6.32
2022-10-11T04:31:34.391Z,6.36
2022-10-11T04:34:12.639Z,6.40
2022-10-11T04:36:50.804Z,6.43
2022-10-11T04:39:29.080Z,6.47
2022-10-11T04:42:07.247Z,6.50
2022-10-11T04:44:45.475Z,6.55
2022-10-11T04:47:24.647Z,6.65
2022-10-11T04:50:04.708Z,6.76
2022-10-11T04:52:43.791Z,7.03
2022-10-11T04:55:22.219Z,7.25
2022-10-11T04:58:01.024Z,7.42
2022-10-11T05:00:39.523Z,7.67
2022-10-11T05:03:17.841Z,7.87
2022-10-11T05:05:54.826Z,8.04
2022-10-11T05:08:33.864Z,8.33
2022-10-11T05:11:15.969Z,8.56
2022-10-11T05:13:53.874Z,8.77
2022-10-11T05:16:32.100Z,9.03
2022-10-11T05:19:10.540Z,9.14
2022-10-11T05:21:48.688Z,9.33
2022-10-11T05:24:26.666Z,9.51
2022-10-11T05:27:04.861Z,9.66
2022-10-11T05:29:43.578Z,9.81
2022-10-11T05:32:24.568Z,10.02
2022-10-11T05:35:05.064Z,10.29
2022-10-11T05:37:44.134Z,10.47
2022-10-11T05:40:22.230Z,10.66
2022-10-11T05:42:59.395Z,10.88
2022-10-11T05:45:42.157Z,11.11
2022-10-11T05:48:20.370Z,11.31
2022-10-11T05:51:03.384Z,11.63
2022-10-11T05:53:41.328Z,11.69
2022-10-11T05:56:24.286Z,11.80
2022-10-11T05:59:02.777Z,11.80
2022-10-11T06:01:40.848Z,12.02
2022-10-11T06:04:19.207Z,12.31
2022-10-11T06:06:57.647Z,12.60
2022-10-11T06:09:35.967Z,13.09
2022-10-11T06:12:13.524Z,13.46
2022-10-11T06:15:10.877Z,13.86
2022-10-11T06:18:05.772Z,14.32
2022-10-11T06:21:01.320Z,14.74
2022-10-11T06:23:59.985Z,15.16
2022-10-11T06:26:53.626Z,15.68
2022-10-11T06:29:49.891Z,16.21
2022-10-11T06:32:45.393Z,16.55
2022-10-11T06:35:40.495Z,16.90
2022-10-11T06:38:47.686Z,17.17
2022-10-11T06:41:43.459Z,17.48
2022-10-11T06:44:35.392Z,17.90
2022-10-11T06:47:27.307Z,18.19
2022-10-11T06:50:47.164Z,18.12
2022-10-11T06:53:19.803Z,17.59
2022-10-11T06:56:18.392Z,16.35
2022-10-11T06:59:16.392Z,15.47
2022-10-11T07:02:17.470Z,14.94
2022-10-11T07:05:10.787Z,14.33
2022-10-11T07:08:06.294Z,13.96
2022-10-11T07:11:06.224Z,13.72
2022-10-11T07:14:04.577Z,13.50
2022-10-11T07:17:05.760Z,13.36
2022-10-11T07:20:00.646Z,13.33
2022-10-11T07:23:01.898Z,13.37
2022-10-11T07:26:07.713Z,13.43
2022-10-11T07:28:59.797Z,13.52
2022-10-11T07:31:51.628Z,13.41
2022-10-11T07:34:42.810Z,13.49
2022-10-11T07:37:38.077Z,13.83
2022-10-11T07:40:34.693Z,14.06
2022-10-11T07:43:26.811Z,14.25
2022-10-11T07:46:18.445Z,14.22
2022-10-11T07:49:14.013Z,14.19
2022-10-11T07:52:06.285Z,14.42
2022-10-11T07:55:16.205Z,14.34
2022-10-11T07:58:11.926Z,14.31
2022-10-11T08:01:12.412Z,14.76
2022-10-11T08:04:13.533Z,15.33
2022-10-11T08:07:24.489Z,15.95
2022-10-11T08:10:01.388Z,17.16
2022-10-11T08:13:05.539Z,18.21
2022-10-11T08:15:57.022Z,19.00
2022-10-11T08:18:57.037Z,19.40
2022-10-11T08:22:00.405Z,20.04
2022-10-11T08:24:54.911Z,21.12
2022-10-11T08:27:47.113Z,22.00
2022-10-11T08:30:38.981Z,22.94
2022-10-11T08:33:46.174Z,23.70
2022-10-11T08:36:24.268Z,24.14
2022-10-11T08:39:25.767Z,23.93
2022-10-11T08:42:56.910Z,24.53
2022-10-11T08:46:06.469Z,24.55
2022-10-11T08:49:00.868Z,25.12
2022-10-11T08:52:12.079Z,25.65
2022-10-11T08:55:19.367Z,26.31
2022-10-11T08:58:19.632Z,26.64
2022-10-11T09:01:27.343Z,27.04
2022-10-11T09:04:06.283Z,27.37
2022-10-11T09:07:04.890Z,27.37
2022-10-11T09:10:01.849Z,28.06
2022-10-11T09:12:40.614Z,28.03
2022-10-11T09:15:26.899Z,28.25
2022-10-11T09:18:06.899Z,28.48
2022-10-11T09:21:02.929Z,28.90
2022-10-11T09:24:08.571Z,29.32
2022-10-11T09:26:47.221Z,29.01
2022-10-11T09:29:37.780Z,29.42
2022-10-11T09:32:15.251Z,30.09
2022-10-11T09:34:43.576Z,30.02
2022-10-11T09:37:16.624Z,30.15
2022-10-11T09:39:59.451Z,30.65
2022-10-11T09:42:27.020Z,30.69
2022-10-11T09:44:55.273Z,31.03
2022-10-11T09:47:28.028Z,31.32
2022-10-11T09:50:14.307Z,31.91
2022-10-11T09:52:53.843Z,32.19
2022-10-11T09:55:33.612Z,32.33
2022-10-11T09:58:01.688Z,32.07
2022-10-11T10:00:33.679Z,32.24
2022-10-11T10:03:04.090Z,32.31
2022-10-11T10:05:38.560Z,32.66
2022-10-11T10:08:09.288Z,32.82
2022-10-11T10:10:42.965Z,33.07
2022-10-11T10:13:22.199Z,33.58
2022-10-11T10:15:56.595Z,33.65
2022-10-11T10:18:37.728Z,34.16
2022-10-11T10:21:10.370Z,33.95
2022-10-11T10:23:38.050Z,34.06
2022-10-11T10:26:19.013Z,34.54
2022-10-11T10:29:09.553Z,34.94
2022-10-11T10:31:55.403Z,34.72
2022-10-11T10:34:36.612Z,35.18
2022-10-11T10:37:26.503Z,35.70
2022-10-11T10:40:04.941Z,35.55
2022-10-11T10:42:33.251Z,35.47
2022-10-11T10:45:00.772Z,35.60
2022-10-11T10:47:55.660Z,36.08
2022-10-11T10:50:42.074Z,35.94
2022-10-11T10:53:19.390Z,37.72
2022-10-11T10:55:57.849Z,35.79
2022-10-11T10:58:31.151Z,34.99
2022-10-11T11:01:11.461Z,34.69
2022-10-11T11:04:05.497Z,34.41
2022-10-11T11:06:51.179Z,34.14
2022-10-11T11:09:56.296Z,34.12
2022-10-11T11:12:26.424Z,32.92
2022-10-11T11:15:08.741Z,32.79
2022-10-11T11:18:15.828Z,32.66
2022-10-11T11:21:35.863Z,33.31
2022-10-11T11:24:45.149Z,32.97
2022-10-11T11:27:31.044Z,32.10
2022-10-11T11:30:04.564Z,31.88
2022-10-11T11:32:48.131Z,31.93
2022-10-11T11:35:27.597Z,31.51
2022-10-11T11:38:06.543Z,30.62
2022-10-11T11:40:41.190Z,30.11
2022-10-11T11:43:22.177Z,29.85
2022-10-11T11:45:49.860Z,29.32
2022-10-11T11:48:24.872Z,29.20
2022-10-11T11:50:58.394Z,28.97
2022-10-11T11:53:45.427Z,28.79
2022-10-11T11:56:30.437Z,28.15
2022-10-11T11:59:16.889Z,28.20
2022-10-11T12:01:56.509Z,27.69
2022-10-11T12:04:32.370Z,27.29
2022-10-11T12:07:21.627Z,27.11
2022-10-11T12:09:54.531Z,26.82
2022-10-11T12:12:37.477Z,27.04
2022-10-11T12:15:26.951Z,27.06
2022-10-11T12:17:57.460Z,26.57
2022-10-11T12:20:27.890Z,26.27
2022-10-11T12:23:05.319Z,25.55
2022-10-11T12:25:38.183Z,24.08
2022-10-11T12:28:43.127Z,23.02
2022-10-11T12:31:26.275Z,21.47
2022-10-11T12:34:08.760Z,20.45
2022-10-11T12:36:40.741Z,19.61
2022-10-11T12:39:43.153Z,19.23
2022-10-11T12:42:26.792Z,18.54
2022-10-11T12:45:13.132Z,18.15
2022-10-11T12:47:49.502Z,17.47
2022-10-11T12:50:39.808Z,17.15
2022-10-11T12:53:17.738Z,16.81
2022-10-11T12:55:51.415Z,16.45
2022-10-11T12:58:29.485Z,16.20
2022-10-11T13:00:58.171Z,16.00
2022-10-11T13:03:29.770Z,15.80
2022-10-11T13:06:02.059Z,15.66
2022-10-11T13:08:34.674Z,15.49
2022-10-11T13:11:09.223Z,15.37
2022-10-11T13:13:44.127Z,15.19
2022-10-11T13:16:18.702Z,14.99
2022-10-11T13:18:50.011Z,14.84
2022-10-11T13:21:36.256Z,14.86
2022-10-11T13:24:10.965Z,14.69
2022-10-11T13:26:39.084Z,14.59
2022-10-11T13:29:18.661Z,14.49
2022-10-11T13:31:48.205Z,14.30
2022-10-11T13:34:19.712Z,14.10
2022-10-11T13:36:55.522Z,14.04
2022-10-11T13:39:31.196Z,13.90
2022-10-11T13:42:00.296Z,13.80
2022-10-11T13:44:28.095Z,13.74
2022-10-11T13:46:55.701Z,13.62
2022-10-11T13:49:40.412Z,13.57
2022-10-11T13:52:23.272Z,13.58
2022-10-11T13:55:02.954Z,13.41
2022-10-11T13:57:49.539Z,13.40
2022-10-11T14:00:19.894Z,13.25
2022-10-11T14:03:00.837Z,13.15
2022-10-11T14:05:41.502Z,13.05
2022-10-11T14:08:35.781Z,13.06
2022-10-11T14:11:06.486Z,12.92
2022-10-11T14:13:44.965Z,12.81
2022-10-11T14:16:20.501Z,12.74
2022-10-11T14:19:10.007Z,12.69
2022-10-11T14:21:45.339Z,12.64
2022-10-11T14:24:14.654Z,12.53
2022-10-11T14:26:49.628Z,12.47
2022-10-11T14:29:33.011Z,12.40
2022-10-11T14:32:06.701Z,12.32
2022-10-11T14:34:35.616Z,12.22
2022-10-11T14:37:03.302Z,12.14
2022-10-11T14:39:32.463Z,12.02
2022-10-11T14:42:00.659Z,12.01
2022-10-11T14:44:28.616Z,11.87
2022-10-11T14:46:56.076Z,11.86
2022-10-11T14:49:26.434Z,11.79
2022-10-11T14:51:55.614Z,11.70
2022-10-11T14:54:25.030Z,11.61
2022-10-11T14:56:54.945Z,11.52
2022-10-11T14:59:27.113Z,11.53
2022-10-11T15:01:54.835Z,11.47
2022-10-11T15:04:24.700Z,11.40
2022-10-11T15:06:53.959Z,11.34
2022-10-11T15:09:22.560Z,11.29
2022-10-11T15:11:51.716Z,11.28
2022-10-11T15:14:19.124Z,11.24
2022-10-11T15:16:46.563Z,11.19
2022-10-11T15:19:20.081Z,11.14
2022-10-11T15:21:47.891Z,11.08
2022-10-11T15:24:15.604Z,11.07
2022-10-11T15:26:44.077Z,11.04
2022-10-11T15:29:13.120Z,11.02
2022-10-11T15:31:40.672Z,10.99
2022-10-11T15:34:08.683Z,10.97
2022-10-11T15:36:36.141Z,10.93
2022-10-11T15:39:04.074Z,10.91
2022-10-11T15:41:31.525Z,10.83
2022-10-11T15:43:59.128Z,10.79
2022-10-11T15:46:28.752Z,10.81
2022-10-11T15:48:56.272Z,10.80
2022-10-11T15:51:23.695Z,10.67
2022-10-11T15:53:51.208Z,10.75
2022-10-11T15:56:19.776Z,10.68
2022-10-11T15:58:47.229Z,10.65
2022-10-11T16:01:20.206Z,10.69
2022-10-11T16:03:49.214Z,10.69
2022-10-11T16:06:18.024Z,10.63
2022-10-11T16:08:46.168Z,10.61
2022-10-11T16:11:13.980Z,10.55
2022-10-11T16:13:41.581Z,10.57
2022-10-11T16:16:10.462Z,10.57
2022-10-11T16:18:38.954Z,10.56
2022-10-11T16:21:09.618Z,10.54
2022-10-11T16:23:38.298Z,10.52
2022-10-11T16:26:09.224Z,10.52
2022-10-11T16:28:38.104Z,10.45
2022-10-11T16:31:20.948Z,10.51
2022-10-11T16:33:48.856Z,10.44
2022-10-11T16:36:32.088Z,10.39
2022-10-11T16:39:01.521Z,10.29
2022-10-11T16:41:29.057Z,10.34
2022-10-11T16:43:56.601Z,10.27
2022-10-11T16:46:24.647Z,10.28
2022-10-11T16:48:55.849Z,10.26
2022-10-11T16:51:24.421Z,10.17
2022-10-11T16:53:53.311Z,10.21
2022-10-11T16:56:22.732Z,10.18
2022-10-11T16:58:54.259Z,10.16
2022-10-11T17:01:22.769Z,10.13
2022-10-11T17:03:51.157Z,9.96
2022-10-11T17:06:19.625Z,9.99
2022-10-11T17:08:47.255Z,10.02
2022-10-11T17:11:16.800Z,9.99
2022-10-11T17:13:45.505Z,9.97
2022-10-11T17:16:13.028Z,9.87
2022-10-11T17:18:40.440Z,9.89
2022-10-11T17:21:12.224Z,9.87
2022-10-11T17:23:40.613Z,9.79
2022-10-11T17:26:11.601Z,9.81
2022-10-11T17:28:39.275Z,9.75
2022-10-11T17:31:08.430Z,9.75
2022-10-11T17:33:36.498Z,9.73
2022-10-11T17:36:13.973Z,9.65
2022-10-11T17:38:41.559Z,9.66
2022-10-11T17:41:10.227Z,9.64
2022-10-11T17:43:37.963Z,9.59
2022-10-11T17:46:06.477Z,9.64
2022-10-11T17:48:36.742Z,9.58
2022-10-11T17:51:11.967Z,9.58
2022-10-11T17:53:39.673Z,9.57
2022-10-11T17:56:12.243Z,9.54
2022-10-11T17:58:39.882Z,9.56
2022-10-11T18:01:10.391Z,9.53
2022-10-11T18:03:38.526Z,9.52
2022-10-11T18:06:11.833Z,9.47
2022-10-11T18:08:40.927Z,9.46
2022-10-11T18:11:14.302Z,9.44
2022-10-11T18:13:46.202Z,9.38
2022-10-11T18:16:15.454Z,9.35
2022-10-11T18:18:43.691Z,9.36
2022-10-11T18:21:11.271Z,9.35
2022-10-11T18:23:39.234Z,9.32
2022-10-11T18:26:14.749Z,9.31
2022-10-11T18:28:43.414Z,9.23
2022-10-11T18:31:14.709Z,9.20
2022-10-11T18:33:45.615Z,9.22
2022-10-11T18:36:15.804Z,9.18
2022-10-11T18:38:47.088Z,9.12
2022-10-11T18:41:17.114Z,9.19
2022-10-11T18:43:49.683Z,9.21
2022-10-11T18:46:17.749Z,9.18
2022-10-11T18:48:47.525Z,9.10
2022-10-11T18:51:18.627Z,9.06
2022-10-11T18:53:47.095Z,9.05
2022-10-11T18:56:16.441Z,9.01
2022-10-11T18:58:44.740Z,8.99
2022-10-11T19:01:16.068Z,8.94
2022-10-11T19:03:47.843Z,8.92
2022-10-11T19:06:21.552Z,8.88
2022-10-11T19:08:54.845Z,8.84
2022-10-11T19:11:25.414Z,8.73
2022-10-11T19:14:01.788Z,8.75
2022-10-11T19:16:30.294Z,8.71
2022-10-11T19:18:58.629Z,8.71
2022-10-11T19:21:26.862Z,8.60
2022-10-11T19:23:55.822Z,8.58
2022-10-11T19:26:27.533Z,8.53
2022-10-11T19:29:00.925Z,8.50
2022-10-11T19:31:29.263Z,8.46
2022-10-11T19:33:58.058Z,8.41
2022-10-11T19:36:26.444Z,8.34
2022-10-11T19:38:57.260Z,8.31
2022-10-11T19:41:26.238Z,8.36
2022-10-11T19:43:55.348Z,8.34
2022-10-11T19:46:44.503Z,8.29
2022-10-11T19:49:12.183Z,8.27
2022-10-11T19:51:39.685Z,8.23
2022-10-11T19:54:10.416Z,8.22
2022-10-11T19:56:38.036Z,8.19
2022-10-11T19:59:08.649Z,8.14
2022-10-11T20:01:37.143Z,8.06
2022-10-11T20:04:07.431Z,8.07
2022-10-11T20:06:38.583Z,8.00
2022-10-11T20:11:55.042Z,7.98
2022-10-11T20:14:22.674Z,7.94
2022-10-11T20:16:50.873Z,7.95
2022-10-11T20:19:18.892Z,7.88
2022-10-11T20:21:47.452Z,7.84
2022-10-11T20:24:15.614Z,7.88
2022-10-11T20:26:43.186Z,7.84
2022-10-11T20:29:10.800Z,7.84
2022-10-11T20:31:40.703Z,7.82
2022-10-11T20:34:10.136Z,7.78
2022-10-11T20:36:37.941Z,7.70
2022-10-11T20:39:06.433Z,7.73
2022-10-11T20:41:45.047Z,7.71
2022-10-11T20:44:15.870Z,7.70
2022-10-11T20:46:43.418Z,7.68
2022-10-11T20:49:12.502Z,7.66
2022-10-11T20:51:41.955Z,7.58
2022-10-11T20:54:12.072Z,7.55
2022-10-11T20:56:40.383Z,7.53
2022-10-11T20:59:08.509Z,7.54
2022-10-11T21:01:39.594Z,7.52
2022-10-11T21:04:10.513Z,7.48
2022-10-11T21:06:37.995Z,7.48
2022-10-11T21:09:05.440Z,7.42
2022-10-11T21:11:33.771Z,7.45
2022-10-11T21:14:04.606Z,7.39
2022-10-11T21:16:33.426Z,7.43
2022-10-11T21:19:01.988Z,7.39
2022-10-11T21:21:30.546Z,7.33
2022-10-11T21:24:02.302Z,7.37
2022-10-11T21:26:31.117Z,7.35
2022-10-11T21:29:01.384Z,7.30
2022-10-11T21:31:33.730Z,7.31
2022-10-11T21:34:02.485Z,7.29
2022-10-11T21:36:30.009Z,7.28
2022-10-11T21:38:57.766Z,7.22
2022-10-11T21:41:29.121Z,7.23
2022-10-11T21:43:56.873Z,7.30
2022-10-11T21:49:17.085Z,7.25
2022-10-11T21:51:45.265Z,7.24
2022-10-11T21:54:12.930Z,7.17
2022-10-11T21:56:40.605Z,7.19
2022-10-11T21:59:11.267Z,7.21
2022-10-11T22:01:41.880Z,7.11
2022-10-11T22:04:10.406Z,7.19
2022-10-11T22:06:38.894Z,7.15
2022-10-11T22:09:08.394Z,7.07
2022-10-11T22:11:36.387Z,7.06
2022-10-11T22:14:04.150Z,7.10
2022-10-11T22:16:33.755Z,7.02
2022-10-11T22:19:01.306Z,7.03
2022-10-11T22:21:28.883Z,7.02
2022-10-11T22:23:59.639Z,6.97
2022-10-11T22:26:30.929Z,6.88
2022-10-11T22:29:00.368Z,6.94
2022-10-11T22:31:29.429Z,6.91
2022-10-11T22:34:00.635Z,6.85
2022-10-11T22:36:30.654Z,6.82
2022-10-11T22:38:58.761Z,6.81
2022-10-11T22:41:26.453Z,6.82
2022-10-11T22:43:53.966Z,6.82
2022-10-11T22:46:21.385Z,6.68
2022-10-11T22:48:51.509Z,6.68
2022-10-11T22:51:21.402Z,6.67
2022-10-11T22:53:48.954Z,6.72
2022-10-11T22:56:16.437Z,6.69
2022-10-11T22:58:43.990Z,6.72
2022-10-11T23:01:13.871Z,6.67
2022-10-11T23:03:41.712Z,6.69
2022-10-11T23:06:09.643Z,6.62
2022-10-11T23:08:37.108Z,6.66
2022-10-11T23:11:06.899Z,6.61
2022-10-11T23:13:35.016Z,6.56
2022-10-11T23:16:07.257Z,6.55
2022-10-11T23:18:34.847Z,6.47
2022-10-11T23:21:02.914Z,6.50
2022-10-11T23:23:30.766Z,6.50
2022-10-11T23:26:06.724Z,6.51
2022-10-11T23:28:35.154Z,6.43
2022-10-11T23:31:14.386Z,6.48
2022-10-11T23:33:41.953Z,6.37
2022-10-11T23:36:21.296Z,6.40
2022-10-11T23:38:56.888Z,6.44
2022-10-11T23:41:26.937Z,6.40
2022-10-11T23:43:54.723Z,6.33
2022-10-11T23:46:22.566Z,6.37
2022-10-11T23:48:49.977Z,6.29
2022-10-11T23:51:17.440Z,6.34
2022-10-11T23:53:44.887Z,6.34
2022-10-11T23:56:12.695Z,6.32
2022-10-11T23:58:40.476Z,6.26
